sensor_id;sensor_type;location;lat;lon;timestamp;pressure;altitude;pressure_sealevel;temperature;humidity
29169;BME280;16219;42.864;23.360;2023-11-21T00:00:13;95743.53;;;2.69;100.00
29169;BME280;16219;42.864;23.360;2023-11-21T00:02:41;95741.19;;;2.72;100.00
29169;BME280;16219;42.864;23.360;2023-11-21T00:05:08;95737.25;;;2.70;100.00
29169;BME280;16219;42.864;23.360;2023-11-21T00:07:37;95754.97;;;2.63;100.00
29169;BME280;16219;42.864;23.360;2023-11-21T00:10:05;95757.59;;;2.68;100.00
29169;BME280;16219;42.864;23.360;2023-11-21T00:12:32;95750.28;;;2.70;100.00
29169;BME280;16219;42.864;23.360;2023-11-21T00:14:59;95746.63;;;2.66;100.00
29169;BME280;16219;42.864;23.360;2023-11-21T00:17:27;95756.78;;;2.62;100.00
29169;BME280;16219;42.864;23.360;2023-11-21T00:19:54;95758.88;;;2.60;100.00
29169;BME280;16219;42.864;23.360;2023-11-21T00:22:20;95753.69;;;2.55;100.00
29169;BME280;16219;42.864;23.360;2023-11-21T00:24:49;95756.53;;;2.59;100.00
29169;BME280;16219;42.864;23.360;2023-11-21T00:27:16;95756.00;;;2.62;100.00
29169;BME280;16219;42.864;23.360;2023-11-21T00:29:43;95752.88;;;2.65;100.00
29169;BME280;16219;42.864;23.360;2023-11-21T00:32:11;95747.41;;;2.66;100.00
29169;BME280;16219;42.864;23.360;2023-11-21T00:34:38;95745.59;;;2.67;100.00
29169;BME280;16219;42.864;23.360;2023-11-21T00:37:05;95750.28;;;2.70;100.00
29169;BME280;16219;42.864;23.360;2023-11-21T00:39:33;95741.69;;;2.69;100.00
29169;BME280;16219;42.864;23.360;2023-11-21T00:42:02;95744.03;;;2.66;100.00
29169;BME280;16219;42.864;23.360;2023-11-21T00:44:30;95744.56;;;2.68;100.00
29169;BME280;16219;42.864;23.360;2023-11-21T00:46:57;95750.00;;;2.71;100.00
29169;BME280;16219;42.864;23.360;2023-11-21T00:49:24;95741.16;;;2.62;100.00
29169;BME280;16219;42.864;23.360;2023-11-21T00:51:51;95741.69;;;2.69;100.00
29169;BME280;16219;42.864;23.360;2023-11-21T00:54:18;95735.44;;;2.70;100.00
29169;BME280;16219;42.864;23.360;2023-11-21T00:56:45;95727.34;;;2.62;100.00
29169;BME280;16219;42.864;23.360;2023-11-21T00:59:14;95727.34;;;2.62;100.00
29169;BME280;16219;42.864;23.360;2023-11-21T01:01:41;95723.72;;;2.63;100.00
29169;BME280;16219;42.864;23.360;2023-11-21T01:04:08;95717.22;;;2.60;100.00
29169;BME280;16219;42.864;23.360;2023-11-21T01:06:35;95726.31;;;2.63;100.00
29169;BME280;16219;42.864;23.360;2023-11-21T01:09:02;95719.56;;;2.72;100.00
29169;BME280;16219;42.864;23.360;2023-11-21T01:11:33;95723.19;;;2.71;100.00
29169;BME280;16219;42.864;23.360;2023-11-21T01:14:02;95730.22;;;2.75;100.00
29169;BME280;16219;42.864;23.360;2023-11-21T01:16:32;95725.78;;;2.71;100.00
29169;BME280;16219;42.864;23.360;2023-11-21T01:18:59;95734.13;;;2.73;100.00
29169;BME280;16219;42.864;23.360;2023-11-21T01:21:28;95735.44;;;2.81;100.00
29169;BME280;16219;42.864;23.360;2023-11-21T01:23:56;95738.81;;;2.76;100.00
29169;BME280;16219;42.864;23.360;2023-11-21T01:26:23;95732.31;;;2.73;100.00
29169;BME280;16219;42.864;23.360;2023-11-21T01:28:50;95734.66;;;2.49;100.00
29169;BME280;16219;42.864;23.360;2023-11-21T01:31:17;95733.09;;;2.38;100.00
29169;BME280;16219;42.864;23.360;2023-11-21T01:33:47;95731.00;;;2.40;100.00
29169;BME280;16219;42.864;23.360;2023-11-21T01:36:14;95734.13;;;2.53;100.00
29169;BME280;16219;42.864;23.360;2023-11-21T01:38:41;95738.28;;;2.59;100.00
29169;BME280;16219;42.864;23.360;2023-11-21T01:41:09;95732.84;;;2.60;100.00
29169;BME280;16219;42.864;23.360;2023-11-21T01:43:36;95734.91;;;2.53;100.00
29169;BME280;16219;42.864;23.360;2023-11-21T01:46:04;95723.44;;;2.54;100.00
29169;BME280;16219;42.864;23.360;2023-11-21T01:48:32;95731.03;;;2.56;100.00
29169;BME280;16219;42.864;23.360;2023-11-21T01:51:02;95719.03;;;2.55;100.00
29169;BME280;16219;42.864;23.360;2023-11-21T01:53:29;95718.53;;;2.47;100.00
29169;BME280;16219;42.864;23.360;2023-11-21T01:55:56;95716.19;;;2.51;100.00
29169;BME280;16219;42.864;23.360;2023-11-21T01:58:25;95721.13;;;2.53;100.00
29169;BME280;16219;42.864;23.360;2023-11-21T02:00:52;95721.34;;;2.46;100.00
29169;BME280;16219;42.864;23.360;2023-11-21T02:03:20;95720.06;;;2.48;100.00
29169;BME280;16219;42.864;23.360;2023-11-21T02:05:48;95711.22;;;2.44;100.00
29169;BME280;16219;42.864;23.360;2023-11-21T02:08:16;95700.81;;;2.39;100.00
29169;BME280;16219;42.864;23.360;2023-11-21T02:10:45;95713.28;;;2.32;100.00
29169;BME280;16219;42.864;23.360;2023-11-21T02:13:13;95708.59;;;2.29;100.00
29169;BME280;16219;42.864;23.360;2023-11-21T02:15:42;95707.31;;;2.37;100.00
29169;BME280;16219;42.864;23.360;2023-11-21T02:18:09;95715.09;;;2.11;100.00
29169;BME280;16219;42.864;23.360;2023-11-21T02:20:37;95708.31;;;2.20;100.00
29169;BME280;16219;42.864;23.360;2023-11-21T02:23:08;95701.81;;;2.33;100.00
29169;BME280;16219;42.864;23.360;2023-11-21T02:25:36;95688.56;;;2.35;100.00
29169;BME280;16219;42.864;23.360;2023-11-21T02:28:04;95695.31;;;2.46;100.00
29169;BME280;16219;42.864;23.360;2023-11-21T02:30:32;95696.66;;;2.43;100.00
29169;BME280;16219;42.864;23.360;2023-11-21T02:32:59;95699.25;;;2.43;100.00
29169;BME280;16219;42.864;23.360;2023-11-21T02:35:26;95686.25;;;2.38;100.00
29169;BME280;16219;42.864;23.360;2023-11-21T02:37:53;95694.03;;;2.38;100.00
29169;BME280;16219;42.864;23.360;2023-11-21T02:40:22;95700.81;;;2.34;100.00
29169;BME280;16219;42.864;23.360;2023-11-21T02:42:50;95692.47;;;2.27;100.00
29169;BME280;16219;42.864;23.360;2023-11-21T02:45:18;95701.31;;;2.36;100.00
29169;BME280;16219;42.864;23.360;2023-11-21T02:47:46;95700.81;;;2.39;100.00
29169;BME280;16219;42.864;23.360;2023-11-21T02:50:14;95708.34;;;2.41;100.00
29169;BME280;16219;42.864;23.360;2023-11-21T02:52:42;95706.78;;;2.40;100.00
29169;BME280;16219;42.864;23.360;2023-11-21T02:55:09;95696.63;;;2.28;100.00
29169;BME280;16219;42.864;23.360;2023-11-21T02:57:38;95699.75;;;2.35;100.00
29169;BME280;16219;42.864;23.360;2023-11-21T03:00:06;95707.84;;;2.34;100.00
29169;BME280;16219;42.864;23.360;2023-11-21T03:02:33;95702.88;;;2.27;100.00
29169;BME280;16219;42.864;23.360;2023-11-21T03:05:05;95709.63;;;2.13;100.00
29169;BME280;16219;42.864;23.360;2023-11-21T03:07:32;95703.91;;;2.16;100.00
29169;BME280;16219;42.864;23.360;2023-11-21T03:09:59;95708.09;;;2.17;100.00
29169;BME280;16219;42.864;23.360;2023-11-21T03:12:26;95714.34;;;2.21;100.00
29169;BME280;16219;42.864;23.360;2023-11-21T03:14:54;95718.22;;;2.29;100.00
29169;BME280;16219;42.864;23.360;2023-11-21T03:17:21;95710.69;;;2.32;100.00
29169;BME280;16219;42.864;23.360;2023-11-21T03:19:50;95727.88;;;2.38;100.00
29169;BME280;16219;42.864;23.360;2023-11-21T03:22:17;95722.91;;;2.37;100.00
29169;BME280;16219;42.864;23.360;2023-11-21T03:24:44;95717.97;;;2.30;100.00
29169;BME280;16219;42.864;23.360;2023-11-21T03:27:11;95717.97;;;2.30;100.00
29169;BME280;16219;42.864;23.360;2023-11-21T03:29:38;95704.44;;;2.28;100.00
29169;BME280;16219;42.864;23.360;2023-11-21T03:32:07;95699.75;;;2.25;100.00
29169;BME280;16219;42.864;23.360;2023-11-21T03:34:34;95697.41;;;2.23;100.00
29169;BME280;16219;42.864;23.360;2023-11-21T03:37:01;95706.00;;;2.29;100.00
29169;BME280;16219;42.864;23.360;2023-11-21T03:39:28;95687.50;;;2.20;100.00
29169;BME280;16219;42.864;23.360;2023-11-21T03:41:55;95709.38;;;2.14;100.00
29169;BME280;16219;42.864;23.360;2023-11-21T03:44:22;95704.16;;;2.14;100.00
29169;BME280;16219;42.864;23.360;2023-11-21T03:46:52;95709.63;;;2.13;100.00
29169;BME280;16219;42.864;23.360;2023-11-21T03:49:20;95705.72;;;2.15;100.00
29169;BME280;16219;42.864;23.360;2023-11-21T03:51:47;95706.00;;;2.19;100.00
29169;BME280;16219;42.864;23.360;2023-11-21T03:54:14;95706.25;;;2.17;100.00
29169;BME280;16219;42.864;23.360;2023-11-21T03:56:41;95701.31;;;2.21;100.00
29169;BME280;16219;42.864;23.360;2023-11-21T03:59:08;95695.59;;;2.24;100.00
29169;BME280;16219;42.864;23.360;2023-11-21T04:01:35;95698.72;;;2.26;100.00
29169;BME280;16219;42.864;23.360;2023-11-21T04:04:02;95688.56;;;2.24;100.00
29169;BME280;16219;42.864;23.360;2023-11-21T04:06:31;95685.16;;;2.24;100.00
29169;BME280;16219;42.864;23.360;2023-11-21T04:08:58;95695.06;;;2.22;100.00
29169;BME280;16219;42.864;23.360;2023-11-21T04:11:25;95706.53;;;2.21;100.00
29169;BME280;16219;42.864;23.360;2023-11-21T04:13:55;95704.94;;;2.25;100.00
29169;BME280;16219;42.864;23.360;2023-11-21T04:16:22;95700.53;;;2.25;100.00
29169;BME280;16219;42.864;23.360;2023-11-21T04:18:49;95695.59;;;2.19;100.00
29169;BME280;16219;42.864;23.360;2023-11-21T04:21:16;95688.81;;;2.23;100.00
29169;BME280;16219;42.864;23.360;2023-11-21T04:23:45;95688.56;;;2.24;100.00
29169;BME280;16219;42.864;23.360;2023-11-21T04:26:12;95685.94;;;2.19;100.00
29169;BME280;16219;42.864;23.360;2023-11-21T04:28:39;95683.88;;;2.21;100.00
29169;BME280;16219;42.864;23.360;2023-11-21T04:31:06;95684.94;;;2.25;100.00
29169;BME280;16219;42.864;23.360;2023-11-21T04:33:33;95677.38;;;2.24;100.00
29169;BME280;16219;42.864;23.360;2023-11-21T04:36:00;95681.00;;;2.28;100.00
29169;BME280;16219;42.864;23.360;2023-11-21T04:38:27;95684.66;;;2.32;100.00
29169;BME280;16219;42.864;23.360;2023-11-21T04:40:56;95682.06;;;2.32;100.00
29169;BME280;16219;42.864;23.360;2023-11-21T04:43:23;95681.00;;;2.33;100.00
29169;BME280;16219;42.864;23.360;2023-11-21T04:45:50;95679.19;;;2.29;100.00
29169;BME280;16219;42.864;23.360;2023-11-21T04:48:17;95681.00;;;2.28;100.00
29169;BME280;16219;42.864;23.360;2023-11-21T04:50:44;95685.16;;;2.29;100.00
29169;BME280;16219;42.864;23.360;2023-11-21T04:53:11;95683.09;;;2.26;100.00
29169;BME280;16219;42.864;23.360;2023-11-21T04:55:40;95695.59;;;2.19;100.00
29169;BME280;16219;42.864;23.360;2023-11-21T04:58:08;95691.44;;;2.18;100.00
29169;BME280;16219;42.864;23.360;2023-11-21T05:00:35;95680.50;;;2.21;100.00
29169;BME280;16219;42.864;23.360;2023-11-21T05:03:03;95684.38;;;2.23;100.00
29169;BME280;16219;42.864;23.360;2023-11-21T05:05:30;95690.38;;;2.24;100.00
29169;BME280;16219;42.864;23.360;2023-11-21T05:07:58;95700.28;;;2.17;100.00
29169;BME280;16219;42.864;23.360;2023-11-21T05:10:25;95685.94;;;2.19;100.00
29169;BME280;16219;42.864;23.360;2023-11-21T05:12:52;95680.75;;;2.09;100.00
29169;BME280;16219;42.864;23.360;2023-11-21T05:15:20;95688.81;;;2.13;100.00
29169;BME280;16219;42.864;23.360;2023-11-21T05:17:49;95688.00;;;2.02;100.00
29169;BME280;16219;42.864;23.360;2023-11-21T05:20:17;95700.50;;;2.05;100.00
29169;BME280;16219;42.864;23.360;2023-11-21T05:22:46;95696.09;;;2.16;100.00
29169;BME280;16219;42.864;23.360;2023-11-21T05:25:14;95686.72;;;2.10;100.00
29169;BME280;16219;42.864;23.360;2023-11-21T05:27:42;95696.63;;;2.13;100.00
29169;BME280;16219;42.864;23.360;2023-11-21T05:30:10;95693.50;;;2.11;100.00
29169;BME280;16219;42.864;23.360;2023-11-21T05:32:41;95696.09;;;2.16;100.00
29169;BME280;16219;42.864;23.360;2023-11-21T05:35:09;95695.06;;;2.22;100.00
29169;BME280;16219;42.864;23.360;2023-11-21T05:37:40;95700.00;;;2.23;100.00
29169;BME280;16219;42.864;23.360;2023-11-21T05:40:08;95697.41;;;2.23;100.00
29169;BME280;16219;42.864;23.360;2023-11-21T05:42:35;95695.06;;;2.27;100.00
29169;BME280;16219;42.864;23.360;2023-11-21T05:45:05;95686.22;;;2.28;100.00
29169;BME280;16219;42.864;23.360;2023-11-21T05:47:36;95694.81;;;2.08;100.00
29169;BME280;16219;42.864;23.360;2023-11-21T05:50:06;95700.25;;;2.02;100.00
29169;BME280;16219;42.864;23.360;2023-11-21T05:52:36;95703.34;;;2.04;100.00
29169;BME280;16219;42.864;23.360;2023-11-21T05:55:04;95702.34;;;2.20;100.00
29169;BME280;16219;42.864;23.360;2023-11-21T05:57:33;95707.03;;;2.23;100.00
29169;BME280;16219;42.864;23.360;2023-11-21T06:00:03;95710.69;;;2.32;100.00
29169;BME280;16219;42.864;23.360;2023-11-21T06:02:37;95707.56;;;2.45;100.00
29169;BME280;16219;42.864;23.360;2023-11-21T06:05:07;95706.78;;;2.50;100.00
29169;BME280;16219;42.864;23.360;2023-11-21T06:07:34;95701.31;;;2.57;100.00
29169;BME280;16219;42.864;23.360;2023-11-21T06:10:02;95703.94;;;2.46;100.00
29169;BME280;16219;42.864;23.360;2023-11-21T06:12:32;95689.88;;;2.42;100.00
29169;BME280;16219;42.864;23.360;2023-11-21T06:15:01;95699.00;;;2.55;100.00
29169;BME280;16219;42.864;23.360;2023-11-21T06:17:30;95706.53;;;2.62;100.00
29169;BME280;16219;42.864;23.360;2023-11-21T06:19:57;95709.13;;;2.62;100.00
29169;BME280;16219;42.864;23.360;2023-11-21T06:22:26;95710.19;;;2.61;100.00
29169;BME280;16219;42.864;23.360;2023-11-21T06:24:53;95714.34;;;2.62;100.00
29169;BME280;16219;42.864;23.360;2023-11-21T06:27:20;95713.56;;;2.61;100.00
29169;BME280;16219;42.864;23.360;2023-11-21T06:29:47;95720.06;;;2.69;100.00
29169;BME280;16219;42.864;23.360;2023-11-21T06:32:14;95715.13;;;2.72;100.00
29169;BME280;16219;42.864;23.360;2023-11-21T06:34:42;95709.63;;;2.79;100.00
29169;BME280;16219;42.864;23.360;2023-11-21T06:37:09;95706.00;;;2.85;100.00
29169;BME280;16219;42.864;23.360;2023-11-21T06:39:39;95700.25;;;2.98;100.00
29169;BME280;16219;42.864;23.360;2023-11-21T06:42:06;95708.53;;;3.06;100.00
29169;BME280;16219;42.864;23.360;2023-11-21T06:44:33;95710.63;;;3.09;100.00
29169;BME280;16219;42.864;23.360;2023-11-21T06:47:01;95707.44;;;3.27;100.00
29169;BME280;16219;42.864;23.360;2023-11-21T06:49:28;95705.13;;;3.25;100.00
29169;BME280;16219;42.864;23.360;2023-11-21T06:51:57;95710.56;;;3.34;100.00
29169;BME280;16219;42.864;23.360;2023-11-21T06:54:24;95707.72;;;3.36;100.00
29169;BME280;16219;42.864;23.360;2023-11-21T06:56:52;95702.25;;;3.32;100.00
29169;BME280;16219;42.864;23.360;2023-11-21T06:59:19;95717.59;;;3.39;100.00
29169;BME280;16219;42.864;23.360;2023-11-21T07:01:46;95711.84;;;3.42;100.00
29169;BME280;16219;42.864;23.360;2023-11-21T07:04:13;95713.66;;;3.46;100.00
29169;BME280;16219;42.864;23.360;2023-11-21T07:06:40;95715.72;;;3.55;100.00
29169;BME280;16219;42.864;23.360;2023-11-21T07:09:08;95709.41;;;3.61;100.00
29169;BME280;16219;42.864;23.360;2023-11-21T07:11:37;95717.25;;;3.66;100.00
29169;BME280;16219;42.864;23.360;2023-11-21T07:14:06;95719.84;;;3.71;100.00
29169;BME280;16219;42.864;23.360;2023-11-21T07:16:34;95715.88;;;3.73;100.00
29169;BME280;16219;42.864;23.360;2023-11-21T07:19:03;95712.50;;;3.73;100.00
29169;BME280;16219;42.864;23.360;2023-11-21T07:21:31;95720.78;;;3.85;100.00
29169;BME280;16219;42.864;23.360;2023-11-21T07:23:59;95722.84;;;3.93;100.00
29169;BME280;16219;42.864;23.360;2023-11-21T07:26:26;95709.09;;;3.83;100.00
29169;BME280;16219;42.864;23.360;2023-11-21T07:28:53;95710.28;;;4.00;100.00
29169;BME280;16219;42.864;23.360;2023-11-21T07:31:22;95714.16;;;4.03;100.00
29169;BME280;16219;42.864;23.360;2023-11-21T07:33:50;95710.50;;;4.09;100.00
29169;BME280;16219;42.864;23.360;2023-11-21T07:36:19;95700.03;;;4.14;100.00
29169;BME280;16219;42.864;23.360;2023-11-21T07:38:46;95713.31;;;4.18;100.00
29169;BME280;16219;42.864;23.360;2023-11-21T07:41:13;95708.13;;;4.13;100.00
29169;BME280;16219;42.864;23.360;2023-11-21T07:43:41;95701.53;;;4.20;100.00
29169;BME280;16219;42.864;23.360;2023-11-21T07:46:08;95696.63;;;4.14;100.00
29169;BME280;16219;42.864;23.360;2023-11-21T07:48:36;95700.22;;;4.23;100.00
29169;BME280;16219;42.864;23.360;2023-11-21T07:51:03;95702.75;;;4.38;100.00
29169;BME280;16219;42.864;23.360;2023-11-21T07:53:30;95701.09;;;4.47;100.00
29169;BME280;16219;42.864;23.360;2023-11-21T07:55:58;95687.81;;;4.73;100.00
29169;BME280;16219;42.864;23.360;2023-11-21T07:58:25;95688.50;;;4.84;100.00
29169;BME280;16219;42.864;23.360;2023-11-21T08:00:52;95690.56;;;4.87;100.00
29169;BME280;16219;42.864;23.360;2023-11-21T08:03:19;95685.75;;;4.99;100.00
29169;BME280;16219;42.864;23.360;2023-11-21T08:05:48;95672.63;;;5.04;100.00
29169;BME280;16219;42.864;23.360;2023-11-21T08:08:15;95677.97;;;5.18;100.00
29169;BME280;16219;42.864;23.360;2023-11-21T08:10:44;95671.56;;;5.29;100.00
29169;BME280;16219;42.864;23.360;2023-11-21T08:13:22;95677.75;;;5.38;100.00
29169;BME280;16219;42.864;23.360;2023-11-21T08:15:49;95681.09;;;5.44;100.00
29169;BME280;16219;42.864;23.360;2023-11-21T08:18:22;95675.44;;;5.56;100.00
29169;BME280;16219;42.864;23.360;2023-11-21T08:20:51;95673.28;;;5.63;100.00
29169;BME280;16219;42.864;23.360;2023-11-21T08:23:20;95681.59;;;5.65;100.00
29169;BME280;16219;42.864;23.360;2023-11-21T08:25:51;95681.06;;;5.68;100.00
29169;BME280;16219;42.864;23.360;2023-11-21T08:28:18;95687.28;;;5.72;100.00
29169;BME280;16219;42.864;23.360;2023-11-21T08:30:45;95672.72;;;5.66;100.00
29169;BME280;16219;42.864;23.360;2023-11-21T08:33:12;95677.38;;;5.69;100.00
29169;BME280;16219;42.864;23.360;2023-11-21T08:35:40;95680.13;;;5.77;100.00
29169;BME280;16219;42.864;23.360;2023-11-21T08:38:08;95676.69;;;5.82;100.00
29169;BME280;16219;42.864;23.360;2023-11-21T08:40:35;95675.00;;;5.91;100.00
29169;BME280;16219;42.864;23.360;2023-11-21T08:43:02;95671.78;;;5.99;100.00
29169;BME280;16219;42.864;23.360;2023-11-21T08:45:30;95674.53;;;6.08;100.00
29169;BME280;16219;42.864;23.360;2023-11-21T08:47:57;95665.06;;;6.12;100.00
29169;BME280;16219;42.864;23.360;2023-11-21T08:50:24;95669.34;;;6.22;100.00
29169;BME280;16219;42.864;23.360;2023-11-21T08:52:51;95663.34;;;6.21;100.00
29169;BME280;16219;42.864;23.360;2023-11-21T08:55:20;95658.16;;;6.35;100.00
29169;BME280;16219;42.864;23.360;2023-11-21T08:57:47;95654.31;;;6.46;100.00
29169;BME280;16219;42.864;23.360;2023-11-21T09:00:15;95646.69;;;6.64;100.00
29169;BME280;16219;42.864;23.360;2023-11-21T09:02:43;95643.09;;;6.73;100.00
29169;BME280;16219;42.864;23.360;2023-11-21T09:05:10;95633.31;;;6.79;100.00
29169;BME280;16219;42.864;23.360;2023-11-21T09:07:39;95626.72;;;6.82;100.00
29169;BME280;16219;42.864;23.360;2023-11-21T09:10:07;95618.34;;;6.80;100.00
29169;BME280;16219;42.864;23.360;2023-11-21T09:12:36;95606.81;;;6.94;100.00
29169;BME280;16219;42.864;23.360;2023-11-21T09:15:05;95610.41;;;6.98;100.00
29169;BME280;16219;42.864;23.360;2023-11-21T09:17:33;95596.81;;;7.10;100.00
29169;BME280;16219;42.864;23.360;2023-11-21T09:20:01;95584.66;;;7.14;100.00
29169;BME280;16219;42.864;23.360;2023-11-21T09:22:31;95581.63;;;7.21;100.00
29169;BME280;16219;42.864;23.360;2023-11-21T09:24:58;95583.31;;;7.31;100.00
29169;BME280;16219;42.864;23.360;2023-11-21T09:27:25;95576.56;;;7.38;100.00
29169;BME280;16219;42.864;23.360;2023-11-21T09:29:53;95580.16;;;7.42;100.00
29169;BME280;16219;42.864;23.360;2023-11-21T09:32:21;95556.63;;;7.37;100.00
29169;BME280;16219;42.864;23.360;2023-11-21T09:34:48;95554.59;;;7.48;100.00
29169;BME280;16219;42.864;23.360;2023-11-21T09:37:15;95558.25;;;7.61;100.00
29169;BME280;16219;42.864;23.360;2023-11-21T09:39:43;95543.34;;;7.70;100.00
29169;BME280;16219;42.864;23.360;2023-11-21T09:42:11;95525.44;;;7.72;100.00
29169;BME280;16219;42.864;23.360;2023-11-21T09:44:46;95522.47;;;7.87;100.00
29169;BME280;16219;42.864;23.360;2023-11-21T09:47:17;95511.69;;;7.97;100.00
29169;BME280;16219;42.864;23.360;2023-11-21T09:49:48;95499.38;;;8.07;100.00
29169;BME280;16219;42.864;23.360;2023-11-21T09:52:31;95495.06;;;8.11;100.00
29169;BME280;16219;42.864;23.360;2023-11-21T09:55:27;95483.69;;;8.24;100.00
29169;BME280;16219;42.864;23.360;2023-11-21T09:58:23;95480.34;;;8.32;100.00
29169;BME280;16219;42.864;23.360;2023-11-21T10:00:57;95477.63;;;8.37;100.00
29169;BME280;16219;42.864;23.360;2023-11-21T10:03:27;95470.56;;;8.46;100.00
29169;BME280;16219;42.864;23.360;2023-11-21T10:05:56;95485.44;;;8.60;100.00
29169;BME280;16219;42.864;23.360;2023-11-21T10:08:25;95472.31;;;8.68;100.00
29169;BME280;16219;42.864;23.360;2023-11-21T10:10:54;95479.34;;;8.90;100.00
29169;BME280;16219;42.864;23.360;2023-11-21T10:13:22;95472.06;;;9.05;100.00
29169;BME280;16219;42.864;23.360;2023-11-21T10:15:50;95455.53;;;9.13;100.00
29169;BME280;16219;42.864;23.360;2023-11-21T10:18:17;95469.94;;;9.33;100.00
29169;BME280;16219;42.864;23.360;2023-11-21T10:20:46;95454.63;;;9.52;100.00
29169;BME280;16219;42.864;23.360;2023-11-21T10:23:18;95455.22;;;9.58;100.00
29169;BME280;16219;42.864;23.360;2023-11-21T10:25:46;95455.03;;;9.71;100.00
29169;BME280;16219;42.864;23.360;2023-11-21T10:28:14;95453.16;;;9.89;100.00
29169;BME280;16219;42.864;23.360;2023-11-21T10:30:41;95455.63;;;9.94;100.00
29169;BME280;16219;42.864;23.360;2023-11-21T10:33:08;95457.00;;;10.00;100.00
29169;BME280;16219;42.864;23.360;2023-11-21T10:35:42;95450.03;;;10.05;100.00
29169;BME280;16219;42.864;23.360;2023-11-21T10:38:14;95445.66;;;10.17;100.00
29169;BME280;16219;42.864;23.360;2023-11-21T10:40:41;95445.03;;;10.20;100.00
29169;BME280;16219;42.864;23.360;2023-11-21T10:43:10;95442.06;;;10.22;100.00
29169;BME280;16219;42.864;23.360;2023-11-21T10:45:38;95439.28;;;10.27;100.00
29169;BME280;16219;42.864;23.360;2023-11-21T10:48:06;95436.34;;;10.29;100.00
29169;BME280;16219;42.864;23.360;2023-11-21T10:50:35;95440.84;;;10.28;100.00
29169;BME280;16219;42.864;23.360;2023-11-21T10:53:02;95428.44;;;10.20;100.00
29169;BME280;16219;42.864;23.360;2023-11-21T10:55:32;95432.78;;;10.16;100.00
29169;BME280;16219;42.864;23.360;2023-11-21T10:58:01;95427.97;;;10.26;100.00
29169;BME280;16219;42.864;23.360;2023-11-21T11:00:30;95420.81;;;10.27;100.00
29169;BME280;16219;42.864;23.360;2023-11-21T11:02:58;95416.63;;;10.26;100.00
29169;BME280;16219;42.864;23.360;2023-11-21T11:05:27;95407.97;;;10.25;100.00
29169;BME280;16219;42.864;23.360;2023-11-21T11:07:58;95407.94;;;10.34;100.00
29169;BME280;16219;42.864;23.360;2023-11-21T11:10:27;95413.81;;;10.31;100.00
29169;BME280;16219;42.864;23.360;2023-11-21T11:12:56;95409.97;;;10.29;100.00
29169;BME280;16219;42.864;23.360;2023-11-21T11:15:24;95405.78;;;10.19;100.00
29169;BME280;16219;42.864;23.360;2023-11-21T11:17:52;95401.94;;;10.16;100.00
29169;BME280;16219;42.864;23.360;2023-11-21T11:20:24;95401.78;;;10.13;100.00
29169;BME280;16219;42.864;23.360;2023-11-21T11:23:08;95384.44;;;10.12;100.00
29169;BME280;16219;42.864;23.360;2023-11-21T11:25:49;95372.97;;;10.08;100.00
29169;BME280;16219;42.864;23.360;2023-11-21T11:28:26;95389.22;;;10.10;100.00
29169;BME280;16219;42.864;23.360;2023-11-21T11:31:03;95386.16;;;10.08;100.00
29169;BME280;16219;42.864;23.360;2023-11-21T11:33:37;95387.66;;;10.17;100.00
29169;BME280;16219;42.864;23.360;2023-11-21T11:36:10;95381.09;;;10.23;100.00
29169;BME280;16219;42.864;23.360;2023-11-21T11:38:45;95376.94;;;10.22;100.00
29169;BME280;16219;42.864;23.360;2023-11-21T11:41:24;95384.38;;;10.29;100.00
29169;BME280;16219;42.864;23.360;2023-11-21T11:43:53;95380.84;;;10.25;100.00
29169;BME280;16219;42.864;23.360;2023-11-21T11:46:19;95384.69;;;10.27;100.00
29169;BME280;16219;42.864;23.360;2023-11-21T11:48:48;95380.84;;;10.25;100.00
29169;BME280;16219;42.864;23.360;2023-11-21T11:51:29;95392.25;;;10.38;100.00
29169;BME280;16219;42.864;23.360;2023-11-21T11:53:57;95378.19;;;10.25;100.00
29169;BME280;16219;42.864;23.360;2023-11-21T11:56:26;95393.50;;;10.32;100.00
29169;BME280;16219;42.864;23.360;2023-11-21T11:58:56;95389.66;;;10.29;100.00
29169;BME280;16219;42.864;23.360;2023-11-21T12:01:24;95390.41;;;10.30;100.00
29169;BME280;16219;42.864;23.360;2023-11-21T12:04:27;95397.44;;;10.17;100.00
29169;BME280;16219;42.864;23.360;2023-11-21T12:07:04;95398.41;;;10.04;100.00
29169;BME280;16219;42.864;23.360;2023-11-21T12:09:33;95394.22;;;10.02;100.00
29169;BME280;16219;42.864;23.360;2023-11-21T12:12:02;95403.75;;;9.86;100.00
29169;BME280;16219;42.864;23.360;2023-11-21T12:14:30;95398.31;;;9.83;100.00
29169;BME280;16219;42.864;23.360;2023-11-21T12:16:58;95387.63;;;9.79;100.00
29169;BME280;16219;42.864;23.360;2023-11-21T12:19:26;95398.63;;;9.72;100.00
29169;BME280;16219;42.864;23.360;2023-11-21T12:21:53;95394.19;;;9.56;100.00
29169;BME280;16219;42.864;23.360;2023-11-21T12:24:21;95400.38;;;9.60;100.00
29169;BME280;16219;42.864;23.360;2023-11-21T12:26:49;95392.03;;;9.58;100.00
29169;BME280;16219;42.864;23.360;2023-11-21T12:29:16;95397.28;;;9.58;100.00
29169;BME280;16219;42.864;23.360;2023-11-21T12:31:45;95389.25;;;9.45;100.00
29169;BME280;16219;42.864;23.360;2023-11-21T12:34:15;95378.72;;;9.37;100.00
29169;BME280;16219;42.864;23.360;2023-11-21T12:36:43;95380.44;;;9.41;100.00
29169;BME280;16219;42.864;23.360;2023-11-21T12:39:11;95383.69;;;9.38;100.00
29169;BME280;16219;42.864;23.360;2023-11-21T12:41:40;95382.13;;;9.37;100.00
29169;BME280;16219;42.864;23.360;2023-11-21T12:44:11;95365.88;;;9.35;100.00
29169;BME280;16219;42.864;23.360;2023-11-21T12:46:42;95368.81;;;9.42;100.00
29169;BME280;16219;42.864;23.360;2023-11-21T12:49:12;95365.88;;;9.44;100.00
29169;BME280;16219;42.864;23.360;2023-11-21T12:51:43;95360.91;;;9.34;100.00
29169;BME280;16219;42.864;23.360;2023-11-21T12:54:12;95361.09;;;9.29;100.00